Time;durP1;ratioP1;P1;durP2;ratioP2;P2;SDS_P1;SDS_P2;PMS_P1;PMS_P2;Temp;Humidity;BMP_temperature;BMP_pressure;BME280_temperature;BME280_humidity;BME280_pressure;Samples;Min_cycle;Max_cycle;Signal;HPM_P1;HPM_P2
2023/01/02 00:00:26;;;;;;;4.10;0.93;;;28.00;99.90;;;;;;5021682;28;20498;-82
2023/01/02 00:02:57;;;;;;;4.30;1.05;;;27.80;99.90;;;;;;5033327;28;20209;-81
2023/01/02 00:05:28;;;;;;;4.88;1.00;;;27.90;99.90;;;;;;5034873;28;20208;-79
2023/01/02 00:07:58;;;;;;;3.92;1.13;;;28.10;99.90;;;;;;5035089;28;20540;-80
2023/01/02 00:10:31;;;;;;;3.15;1.10;;;28.20;99.90;;;;;;5034157;28;20285;-80
2023/01/02 00:13:02;;;;;;;3.55;1.00;;;28.30;99.90;;;;;;5027750;28;20233;-79
2023/01/02 00:15:33;;;;;;;4.05;1.30;;;28.60;99.90;;;;;;5023346;28;20214;-81
2023/01/02 00:18:04;;;;;;;4.55;1.20;;;28.70;99.90;;;;;;5019879;28;20563;-79
2023/01/02 00:20:35;;;;;;;4.35;1.00;;;28.60;99.90;;;;;;5035485;28;20208;-81
2023/01/02 00:23:06;;;;;;;3.08;0.95;;;28.50;99.90;;;;;;5029539;28;20229;-79
2023/01/02 00:25:39;;;;;;;5.85;1.50;;;28.60;99.90;;;;;;5031330;28;20654;-81
2023/01/02 00:28:10;;;;;;;5.47;1.13;;;28.60;99.90;;;;;;5030690;28;20605;-81
2023/01/02 00:30:41;;;;;;;4.10;1.00;;;28.50;99.90;;;;;;5031561;28;20202;-80
2023/01/02 00:33:11;;;;;;;3.58;1.10;;;28.50;99.90;;;;;;5029058;28;20700;-81
2023/01/02 00:35:42;;;;;;;5.97;1.20;;;28.70;99.90;;;;;;5033903;28;20226;-80
2023/01/02 00:38:13;;;;;;;3.63;1.13;;;28.60;99.90;;;;;;5035594;28;20190;-79
2023/01/02 00:40:46;;;;;;;5.63;1.10;;;28.40;99.90;;;;;;5029205;28;20679;-80
2023/01/02 00:43:17;;;;;;;6.85;1.30;;;28.50;99.90;;;;;;5034692;28;20949;-79
2023/01/02 00:45:48;;;;;;;3.35;1.10;;;28.60;99.90;;;;;;5033189;28;20222;-78
2023/01/02 00:48:19;;;;;;;5.13;1.08;;;28.70;99.90;;;;;;5034079;28;20668;-79
2023/01/02 00:50:50;;;;;;;4.05;1.05;;;28.70;99.90;;;;;;5030302;28;20187;-80
2023/01/02 00:53:21;;;;;;;5.35;1.00;;;28.80;99.90;;;;;;5025680;28;20569;-79
2023/01/02 00:55:58;;;;;;;5.53;1.27;;;28.70;99.90;;;;;;5030820;28;20222;-79
2023/01/02 00:58:28;;;;;;;3.05;1.00;;;28.70;99.90;;;;;;5033789;28;20202;-80
2023/01/02 01:00:59;;;;;;;4.00;0.90;;;28.70;99.90;;;;;;5028576;28;20200;-80
2023/01/02 01:03:30;;;;;;;5.20;1.10;;;28.30;99.90;;;;;;5027652;28;20566;-79
2023/01/02 01:06:09;;;;;;;3.40;0.95;;;28.30;99.90;;;;;;5027186;28;20203;-79
2023/01/02 01:08:41;;;;;;;4.00;1.10;;;28.30;99.90;;;;;;5021855;28;20198;-78
2023/01/02 01:11:17;;;;;;;3.78;1.08;;;28.20;99.90;;;;;;5035219;28;20288;-79
2023/01/02 01:13:47;;;;;;;4.18;1.05;;;28.30;99.90;;;;;;5026686;28;20635;-81
2023/01/02 01:16:20;;;;;;;2.88;0.98;;;28.20;99.90;;;;;;5026222;28;20225;-80
2023/01/02 01:18:51;;;;;;;2.83;0.90;;;28.10;99.90;;;;;;5027270;28;20683;-78
2023/01/02 01:21:22;;;;;;;3.67;1.00;;;28.10;99.90;;;;;;5021955;28;20226;-79
2023/01/02 01:23:54;;;;;;;6.38;1.10;;;27.90;99.90;;;;;;5032875;28;20277;-81
2023/01/02 01:26:27;;;;;;;3.35;0.82;;;28.10;99.90;;;;;;5025386;28;20199;-79
2023/01/02 01:28:58;;;;;;;1.90;0.70;;;28.20;99.90;;;;;;5029482;28;20216;-80
2023/01/02 01:31:29;;;;;;;2.78;1.08;;;28.20;99.90;;;;;;5028299;28;20658;-79
2023/01/02 01:34:00;;;;;;;2.72;0.80;;;28.30;99.90;;;;;;5025816;28;20304;-78
2023/01/02 01:36:31;;;;;;;5.45;0.90;;;28.20;99.90;;;;;;5031419;28;20214;-78
2023/01/02 01:39:01;;;;;;;3.80;0.68;;;28.40;99.90;;;;;;5027433;28;20199;-78
2023/01/02 01:41:37;;;;;;;4.55;0.85;;;28.40;99.90;;;;;;5024710;28;20289;-78
2023/01/02 01:44:43;;;;;;;7.00;0.90;;;28.30;99.90;;;;;;5027294;28;20204;-82
2023/01/02 01:47:28;;;;;;;3.00;0.70;;;28.40;99.90;;;;;;5024673;28;20225;-79
2023/01/02 01:50:03;;;;;;;2.97;0.60;;;28.40;99.90;;;;;;5019331;28;20209;-78
2023/01/02 01:52:36;;;;;;;2.17;0.80;;;28.30;99.90;;;;;;5027638;28;20550;-78
2023/01/02 01:55:14;;;;;;;2.92;0.70;;;28.20;99.90;;;;;;5023994;28;20228;-77
2023/01/02 01:57:50;;;;;;;3.10;0.82;;;28.40;99.90;;;;;;5023547;28;20195;-78
2023/01/02 02:00:21;;;;;;;4.03;0.82;;;28.10;99.90;;;;;;5033239;28;20596;-78
2023/01/02 02:02:58;;;;;;;5.72;0.90;;;28.20;99.90;;;;;;5024929;28;20281;-76
2023/01/02 02:05:32;;;;;;;3.60;0.80;;;28.20;99.90;;;;;;5026762;28;20308;-79
2023/01/02 02:08:12;;;;;;;2.83;0.88;;;28.00;99.90;;;;;;5010409;28;20194;-78
2023/01/02 02:10:44;;;;;;;2.97;0.90;;;28.10;99.90;;;;;;5022373;28;20654;-76
2023/01/02 02:13:17;;;;;;;2.72;0.88;;;28.40;99.90;;;;;;5029578;28;20190;-77
2023/01/02 02:15:54;;;;;;;5.40;0.90;;;28.40;99.90;;;;;;5021043;28;20226;-77
2023/01/02 02:18:41;;;;;;;4.63;1.00;;;28.10;99.90;;;;;;5023102;28;20761;-75
2023/01/02 02:21:27;;;;;;;4.75;1.30;;;28.30;99.90;;;;;;5030310;28;20206;-79
2023/01/02 02:24:32;;;;;;;3.45;0.70;;;28.30;99.90;;;;;;5013645;28;20250;-81
2023/01/02 02:27:21;;;;;;;4.50;0.80;;;28.40;99.90;;;;;;4990621;28;20199;-87
2023/01/02 02:30:32;;;;;;;4.65;0.95;;;28.20;99.90;;;;;;5027164;28;20589;-80
2023/01/02 02:33:24;;;;;;;3.88;1.00;;;28.30;99.90;;;;;;5031257;28;20555;-85
2023/01/02 02:36:05;;;;;;;4.13;1.10;;;28.10;99.90;;;;;;5030983;28;20225;-80
2023/01/02 02:38:54;;;;;;;8.90;1.90;;;28.00;99.90;;;;;;5031357;28;20561;-81
2023/01/02 02:41:39;;;;;;;18.13;2.15;;;27.80;99.90;;;;;;5031511;28;20205;-82
2023/01/02 02:44:28;;;;;;;25.88;3.83;;;27.80;99.90;;;;;;5031433;28;20289;-80
2023/01/02 02:47:05;;;;;;;3.20;0.80;;;27.90;99.90;;;;;;5026778;28;20257;-79
2023/01/02 02:49:45;;;;;;;2.95;0.75;;;27.90;99.90;;;;;;5024876;28;20285;-80
2023/01/02 02:52:24;;;;;;;1.67;0.70;;;27.90;99.90;;;;;;5021751;28;20680;-84
2023/01/02 02:55:01;;;;;;;4.10;0.68;;;27.90;99.90;;;;;;5018581;28;20620;-78
2023/01/02 02:57:33;;;;;;;4.18;1.00;;;27.70;99.90;;;;;;5018152;28;20615;-81
2023/01/02 03:00:06;;;;;;;2.58;0.80;;;27.60;99.90;;;;;;5015811;28;20571;-79
2023/01/02 03:02:39;;;;;;;2.40;0.80;;;27.70;99.90;;;;;;5028311;28;20199;-80
2023/01/02 03:05:14;;;;;;;3.13;0.70;;;27.50;99.90;;;;;;5029967;28;20194;-84
2023/01/02 03:07:54;;;;;;;5.80;0.90;;;27.60;99.90;;;;;;5023052;28;20237;-81
2023/01/02 03:10:34;;;;;;;4.07;0.90;;;27.60;99.90;;;;;;5028614;28;20194;-80
2023/01/02 03:13:13;;;;;;;3.13;0.95;;;27.70;99.90;;;;;;5024439;28;20565;-82
2023/01/02 03:15:50;;;;;;;1.88;0.70;;;27.80;99.90;;;;;;5024737;28;20224;-82
2023/01/02 03:18:36;;;;;;;2.92;0.85;;;27.80;99.90;;;;;;5034686;28;20197;-83
2023/01/02 03:21:13;;;;;;;2.63;0.82;;;27.70;99.90;;;;;;5029768;28;20208;-82
2023/01/02 03:23:46;;;;;;;5.10;0.95;;;27.60;99.90;;;;;;5034796;28;20201;-81
2023/01/02 03:26:20;;;;;;;3.50;0.77;;;27.60;99.90;;;;;;5035062;28;20200;-81
2023/01/02 03:28:55;;;;;;;2.17;0.77;;;27.50;99.90;;;;;;5032274;28;20658;-80
2023/01/02 03:31:30;;;;;;;3.08;0.70;;;27.40;99.90;;;;;;5027705;28;20572;-83
2023/01/02 03:34:14;;;;;;;2.28;0.82;;;27.40;99.90;;;;;;5030612;28;20203;-84
2023/01/02 03:36:46;;;;;;;2.22;0.90;;;27.30;99.90;;;;;;5030490;28;20638;-80
2023/01/02 03:39:22;;;;;;;2.55;0.80;;;27.30;99.90;;;;;;5026585;28;20190;-83
2023/01/02 03:41:57;;;;;;;3.55;0.75;;;27.20;99.90;;;;;;5026580;28;20200;-81
2023/01/02 03:44:34;;;;;;;3.20;0.70;;;27.30;99.90;;;;;;5033639;28;20204;-81
2023/01/02 03:47:14;;;;;;;2.88;0.80;;;27.40;99.90;;;;;;5034580;28;20248;-85
2023/01/02 03:49:50;;;;;;;2.72;0.70;;;27.20;99.90;;;;;;5026316;28;20208;-83
2023/01/02 03:52:21;;;;;;;3.08;0.63;;;27.20;99.90;;;;;;5032963;28;20190;-84
2023/01/02 03:54:52;;;;;;;2.28;0.70;;;27.30;99.90;;;;;;5033066;28;20311;-80
2023/01/02 03:57:31;;;;;;;3.60;0.85;;;27.30;99.90;;;;;;5032371;28;20218;-81
2023/01/02 04:00:07;;;;;;;5.38;0.90;;;27.30;99.90;;;;;;5026647;28;20198;-82
2023/01/02 04:02:41;;;;;;;3.53;0.80;;;27.30;99.90;;;;;;5028955;28;20271;-83
2023/01/02 04:05:30;;;;;;;3.53;0.90;;;27.30;99.90;;;;;;5033823;28;20657;-82
2023/01/02 04:08:05;;;;;;;3.05;0.73;;;27.30;99.90;;;;;;5026619;28;20196;-81
2023/01/02 04:10:39;;;;;;;2.38;0.70;;;27.20;99.90;;;;;;5030003;28;20277;-84
2023/01/02 04:13:14;;;;;;;3.60;0.60;;;26.90;99.90;;;;;;5030222;28;20198;-82
2023/01/02 04:15:47;;;;;;;5.07;1.00;;;26.80;99.90;;;;;;5024988;28;20217;-82
2023/01/02 04:18:22;;;;;;;4.30;0.82;;;26.90;99.90;;;;;;5024114;28;20280;-83
2023/01/02 04:20:58;;;;;;;4.97;1.02;;;26.90;99.90;;;;;;5028906;28;20196;-84
2023/01/02 04:23:32;;;;;;;3.90;1.02;;;26.90;99.90;;;;;;5024037;28;20283;-82
2023/01/02 04:26:09;;;;;;;4.32;1.00;;;26.80;99.90;;;;;;5027791;28;20250;-80
2023/01/02 04:28:40;;;;;;;2.92;0.80;;;26.90;99.90;;;;;;5014867;28;20642;-81
2023/01/02 04:31:22;;;;;;;3.78;1.27;;;27.00;99.90;;;;;;5014857;28;20187;-84
2023/01/02 04:33:56;;;;;;;3.20;0.70;;;26.90;99.90;;;;;;5017803;28;20191;-79
2023/01/02 04:36:43;;;;;;;1.35;0.50;;;26.80;99.90;;;;;;5035356;28;20218;-80
2023/01/02 04:39:14;;;;;;;2.95;0.68;;;26.70;99.90;;;;;;5035704;28;20336;-83
2023/01/02 04:41:45;;;;;;;3.13;0.80;;;26.80;99.90;;;;;;5033280;28;20213;-85
2023/01/02 04:44:16;;;;;;;2.35;0.90;;;26.70;99.90;;;;;;5034384;28;20206;-83
2023/01/02 04:46:47;;;;;;;3.13;0.80;;;26.60;99.90;;;;;;5035061;28;20237;-83
2023/01/02 04:49:18;;;;;;;2.58;0.80;;;26.60;99.90;;;;;;5033812;28;20190;-81
2023/01/02 04:51:50;;;;;;;4.20;0.95;;;26.70;99.90;;;;;;5035384;28;20201;-82
2023/01/02 04:54:21;;;;;;;4.38;0.80;;;26.80;99.90;;;;;;5035160;28;20187;-79
2023/01/02 04:56:52;;;;;;;2.83;0.90;;;26.90;99.90;;;;;;5035288;28;20580;-80
2023/01/02 04:59:23;;;;;;;3.67;0.70;;;26.80;99.90;;;;;;5034834;28;20195;-79
2023/01/02 05:01:53;;;;;;;6.90;1.08;;;26.90;99.90;;;;;;5028676;28;20191;-82
2023/01/02 05:04:24;;;;;;;3.80;0.93;;;26.90;99.90;;;;;;5015313;28;20202;-83
2023/01/02 05:06:57;;;;;;;5.03;1.00;;;27.00;99.90;;;;;;5015258;28;20642;-80
2023/01/02 05:09:27;;;;;;;4.95;1.15;;;26.80;99.90;;;;;;5032350;28;20277;-86
2023/01/02 05:11:58;;;;;;;4.95;1.30;;;26.80;99.90;;;;;;5035026;28;20195;-85
2023/01/02 05:14:31;;;;;;;4.38;1.20;;;26.70;99.90;;;;;;5024966;28;20201;-82
2023/01/02 05:17:03;;;;;;;4.38;0.85;;;26.80;99.90;;;;;;5014805;28;20225;-85
2023/01/02 05:19:36;;;;;;;8.68;1.55;;;26.70;99.90;;;;;;5005988;28;20198;-83
2023/01/02 05:24:55;;;;;;;5.35;0.80;;;26.50;99.90;;;;;;5028156;28;20196;-81
2023/01/02 05:27:26;;;;;;;3.55;0.95;;;26.60;99.90;;;;;;5033096;28;20668;-80
2023/01/02 05:29:57;;;;;;;2.95;0.82;;;26.50;99.90;;;;;;5030158;28;20209;-84
2023/01/02 05:32:29;;;;;;;3.90;1.02;;;26.60;99.90;;;;;;5032019;28;20209;-81
2023/01/02 05:34:59;;;;;;;5.47;0.90;;;26.60;99.90;;;;;;5032225;28;20566;-83
2023/01/02 05:37:32;;;;;;;3.33;0.80;;;26.70;99.90;;;;;;5015571;28;20225;-81
2023/01/02 05:40:04;;;;;;;3.83;0.90;;;26.50;99.90;;;;;;5020225;28;20287;-80
2023/01/02 05:42:34;;;;;;;4.15;0.90;;;26.40;99.90;;;;;;5016486;28;20205;-83
2023/01/02 05:45:05;;;;;;;4.75;0.90;;;26.20;99.90;;;;;;5023094;28;20313;-81
2023/01/02 05:47:36;;;;;;;3.90;1.08;;;26.10;99.90;;;;;;5014352;28;20238;-82
2023/01/02 05:50:08;;;;;;;3.20;0.80;;;26.10;99.90;;;;;;5033023;28;20291;-87
2023/01/02 05:52:41;;;;;;;2.78;0.80;;;26.10;99.90;;;;;;5031006;28;20277;-81
2023/01/02 05:55:12;;;;;;;4.47;0.88;;;26.10;99.90;;;;;;5034048;28;20217;-87
2023/01/02 05:57:42;;;;;;;4.20;1.05;;;26.10;99.90;;;;;;5033888;28;20331;-80
2023/01/02 06:00:14;;;;;;;3.63;1.00;;;26.10;99.90;;;;;;5033880;28;20215;-81
2023/01/02 06:02:45;;;;;;;3.58;0.85;;;26.00;99.90;;;;;;5034020;28;20190;-83
2023/01/02 06:05:16;;;;;;;4.78;1.23;;;26.00;99.90;;;;;;5034017;28;20195;-82
2023/01/02 06:07:48;;;;;;;5.15;0.80;;;25.90;99.90;;;;;;5034018;28;20212;-81
2023/01/02 06:10:19;;;;;;;3.55;0.95;;;25.90;99.90;;;;;;5033993;28;20190;-82
2023/01/02 06:12:50;;;;;;;3.88;1.10;;;25.90;99.90;;;;;;5033946;28;20638;-81
2023/01/02 06:15:21;;;;;;;3.67;0.90;;;26.10;99.90;;;;;;5033928;28;20653;-82
2023/01/02 06:17:51;;;;;;;4.88;0.82;;;26.00;99.90;;;;;;5033825;28;20245;-84
2023/01/02 06:20:22;;;;;;;3.78;0.90;;;25.90;99.90;;;;;;5033795;28;20201;-83
2023/01/02 06:22:55;;;;;;;6.60;1.10;;;25.90;99.90;;;;;;5033769;28;20656;-82
2023/01/02 06:25:26;;;;;;;3.58;0.80;;;25.80;99.90;;;;;;5033720;28;20646;-85
2023/01/02 06:27:56;;;;;;;4.55;1.10;;;25.60;99.90;;;;;;5033518;28;20285;-81
2023/01/02 06:30:27;;;;;;;3.47;1.10;;;25.60;99.90;;;;;;5033708;28;20293;-82
2023/01/02 06:32:59;;;;;;;3.95;1.08;;;25.50;99.90;;;;;;5033623;28;20281;-81
2023/01/02 06:35:30;;;;;;;5.85;1.30;;;25.40;99.90;;;;;;5031564;28;20200;-82
2023/01/02 06:38:02;;;;;;;5.60;1.10;;;25.30;99.90;;;;;;5019422;28;20708;-84
2023/01/02 06:40:33;;;;;;;7.47;1.35;;;25.20;99.90;;;;;;5033393;28;20668;-81
2023/01/02 06:43:04;;;;;;;6.45;1.20;;;25.20;99.90;;;;;;5028339;28;20186;-82
2023/01/02 06:45:35;;;;;;;6.50;1.50;;;25.20;99.90;;;;;;5013875;28;20309;-80
2023/01/02 06:48:06;;;;;;;6.30;1.30;;;25.20;99.90;;;;;;5022178;28;20208;-81
2023/01/02 06:50:37;;;;;;;4.88;1.23;;;25.20;99.90;;;;;;5033359;28;20321;-86
2023/01/02 06:53:10;;;;;;;6.32;1.20;;;25.20;99.90;;;;;;5032993;28;20194;-83
2023/01/02 06:55:41;;;;;;;6.00;1.20;;;25.10;99.90;;;;;;5020236;28;20209;-81
2023/01/02 06:58:11;;;;;;;5.13;1.05;;;25.10;99.90;;;;;;5020276;28;20648;-84
2023/01/02 07:00:42;;;;;;;4.57;1.13;;;24.90;99.90;;;;;;5016309;28;20206;-80
2023/01/02 07:03:13;;;;;;;6.75;1.20;;;24.80;99.90;;;;;;5013848;28;20191;-87
2023/01/02 07:05:47;;;;;;;4.97;1.15;;;24.70;99.90;;;;;;5022956;28;20337;-82
2023/01/02 07:08:20;;;;;;;5.38;1.45;;;24.60;99.90;;;;;;5028259;28;20565;-90
2023/01/02 07:10:51;;;;;;;5.50;1.35;;;24.60;99.90;;;;;;5030966;28;20209;-84
2023/01/02 07:13:21;;;;;;;6.40;1.40;;;24.60;99.90;;;;;;5017458;28;20546;-85
2023/01/02 07:15:52;;;;;;;7.68;1.48;;;24.60;99.90;;;;;;5025553;28;20530;-90
2023/01/02 07:18:23;;;;;;;7.10;1.40;;;24.50;99.90;;;;;;5027324;28;20308;-85
2023/01/02 07:20:57;;;;;;;6.57;1.45;;;24.50;99.90;;;;;;5030130;28;20204;-81
2023/01/02 07:23:29;;;;;;;7.72;1.50;;;24.40;99.90;;;;;;5032078;28;20205;-82
2023/01/02 07:26:02;;;;;;;6.35;1.42;;;24.40;99.90;;;;;;5022742;28;20201;-84
2023/01/02 07:28:33;;;;;;;7.50;1.25;;;24.30;99.90;;;;;;5032370;28;20202;-81
2023/01/02 07:31:05;;;;;;;7.80;1.52;;;24.30;99.90;;;;;;5026346;28;20208;-83
2023/01/02 07:33:36;;;;;;;8.68;1.55;;;24.30;99.90;;;;;;5032170;28;20200;-80
2023/01/02 07:36:08;;;;;;;8.30;1.45;;;24.30;99.90;;;;;;5025401;28;20206;-84
2023/01/02 07:38:41;;;;;;;7.93;1.65;;;24.30;99.90;;;;;;5029146;28;20208;-85
2023/01/02 07:41:16;;;;;;;8.85;1.80;;;24.20;99.90;;;;;;5027071;28;20742;-84
2023/01/02 07:43:48;;;;;;;6.07;1.30;;;24.10;99.90;;;;;;5022733;28;20193;-84
2023/01/02 07:46:19;;;;;;;7.72;1.60;;;24.10;99.90;;;;;;5029211;28;20784;-84
2023/01/02 07:48:51;;;;;;;12.63;2.05;;;24.00;99.90;;;;;;5030194;28;20195;-85
2023/01/02 07:51:21;;;;;;;6.50;1.45;;;24.00;99.90;;;;;;5031904;28;20202;-83
2023/01/02 07:53:54;;;;;;;9.65;1.60;;;23.90;99.90;;;;;;5026008;28;20673;-81
2023/01/02 07:56:25;;;;;;;9.43;1.67;;;23.90;99.90;;;;;;5030068;28;20288;-82
2023/01/02 07:58:59;;;;;;;8.18;1.70;;;23.90;99.90;;;;;;5026147;28;20200;-82
2023/01/02 08:01:30;;;;;;;7.50;1.25;;;23.90;99.90;;;;;;5022236;28;20204;-80
2023/01/02 08:04:03;;;;;;;6.38;1.50;;;23.80;99.90;;;;;;5019749;28;20297;-82
2023/01/02 08:06:34;;;;;;;10.35;1.80;;;23.80;99.90;;;;;;5015787;28;20645;-81
2023/01/02 08:09:06;;;;;;;9.93;1.88;;;23.80;99.90;;;;;;5032483;28;20201;-82
2023/01/02 08:11:37;;;;;;;6.97;1.60;;;23.70;99.90;;;;;;5031828;28;20706;-80
2023/01/02 08:14:08;;;;;;;7.80;1.65;;;23.70;99.90;;;;;;5032787;28;20281;-81
2023/01/02 08:16:39;;;;;;;6.40;1.70;;;23.50;99.90;;;;;;5032407;28;20209;-86
2023/01/02 08:19:11;;;;;;;7.22;1.70;;;23.60;99.90;;;;;;5023587;28;20194;-84
2023/01/02 08:21:42;;;;;;;12.23;1.77;;;23.50;99.90;;;;;;5032748;28;20202;-81
2023/01/02 08:24:14;;;;;;;11.00;1.80;;;23.50;99.90;;;;;;5029831;28;20202;-81
2023/01/02 08:26:45;;;;;;;10.98;1.90;;;23.40;99.90;;;;;;5034142;28;20665;-80
2023/01/02 08:29:18;;;;;;;8.20;1.40;;;23.40;99.90;;;;;;5004722;28;20229;-81
2023/01/02 08:31:49;;;;;;;10.23;1.70;;;23.30;99.90;;;;;;5028652;28;20280;-82
2023/01/02 08:34:19;;;;;;;6.97;1.52;;;23.40;99.90;;;;;;5030734;28;20737;-80
2023/01/02 08:36:53;;;;;;;14.38;1.90;;;23.30;99.90;;;;;;5026114;28;20214;-83
2023/01/02 08:39:25;;;;;;;13.15;2.08;;;23.40;99.90;;;;;;5033900;28;20194;-80
2023/01/02 08:41:56;;;;;;;12.98;1.75;;;23.30;99.90;;;;;;5034992;28;20282;-83
2023/01/02 08:44:27;;;;;;;11.82;2.03;;;23.20;99.90;;;;;;5032572;28;20219;-79
2023/01/02 08:46:58;;;;;;;10.20;1.98;;;23.20;99.90;;;;;;5031096;28;20666;-80
2023/01/02 08:49:29;;;;;;;10.32;2.00;;;23.20;99.90;;;;;;5031911;28;20190;-80
2023/01/02 08:52:00;;;;;;;12.55;1.85;;;23.20;99.90;;;;;;5029083;28;20198;-82
2023/01/02 08:54:32;;;;;;;12.18;2.00;;;23.10;99.90;;;;;;5027620;28;20194;-79
2023/01/02 08:57:03;;;;;;;8.20;2.00;;;23.10;99.90;;;;;;5034046;28;20250;-80
2023/01/02 08:59:34;;;;;;;8.90;2.00;;;23.10;99.90;;;;;;5034687;28;20197;-80
2023/01/02 09:02:05;;;;;;;12.00;2.20;;;23.10;99.90;;;;;;5031363;28;20201;-81
2023/01/02 09:04:35;;;;;;;10.20;1.80;;;23.00;99.90;;;;;;5033728;28;20285;-80
2023/01/02 09:07:06;;;;;;;7.45;1.60;;;23.00;99.90;;;;;;5023393;28;20225;-82
2023/01/02 09:09:39;;;;;;;12.43;2.03;;;23.00;99.90;;;;;;5032043;28;20202;-82
2023/01/02 09:12:10;;;;;;;9.13;1.75;;;23.00;99.90;;;;;;5033417;28;20273;-81
2023/01/02 09:14:41;;;;;;;11.90;1.73;;;22.90;99.90;;;;;;5032054;28;20195;-88
2023/01/02 09:17:12;;;;;;;11.30;2.42;;;22.90;99.90;;;;;;5033107;28;20727;-83
2023/01/02 09:19:45;;;;;;;12.48;2.33;;;22.90;99.90;;;;;;5031917;28;20205;-84
2023/01/02 09:22:16;;;;;;;8.35;2.03;;;22.90;99.90;;;;;;5031745;28;20194;-81
2023/01/02 09:24:49;;;;;;;10.77;1.88;;;22.90;99.90;;;;;;5033575;28;20553;-81
2023/01/02 09:27:19;;;;;;;10.82;2.05;;;22.80;99.90;;;;;;5028828;28;20202;-80
2023/01/02 09:29:52;;;;;;;9.23;2.13;;;22.80;99.90;;;;;;5025051;28;20282;-81
2023/01/02 09:32:22;;;;;;;11.52;2.75;;;22.80;99.90;;;;;;5032484;28;20198;-79
2023/01/02 09:34:53;;;;;;;10.10;1.80;;;22.80;99.90;;;;;;5034300;28;20199;-83
2023/01/02 09:37:24;;;;;;;9.20;1.88;;;22.80;99.90;;;;;;5027401;28;20712;-81
2023/01/02 09:39:57;;;;;;;9.80;2.00;;;22.80;99.90;;;;;;5031469;28;20494;-83
2023/01/02 09:42:27;;;;;;;11.15;1.70;;;22.80;99.90;;;;;;5030846;28;20253;-80
2023/01/02 09:45:02;;;;;;;11.10;2.10;;;22.80;99.90;;;;;;5027031;28;20249;-81
2023/01/02 09:47:39;;;;;;;7.13;1.98;;;22.80;99.90;;;;;;5030096;28;20316;-89
2023/01/02 09:50:15;;;;;;;13.88;1.83;;;22.80;99.90;;;;;;5025586;28;20653;-83
2023/01/02 09:52:48;;;;;;;9.10;1.85;;;22.80;99.90;;;;;;5027491;28;20190;-83
2023/01/02 09:55:29;;;;;;;10.93;2.00;;;22.80;99.90;;;;;;5033948;28;20191;-83
2023/01/02 09:58:05;;;;;;;9.75;1.98;;;22.80;99.90;;;;;;5031718;28;20214;-84
2023/01/02 10:00:37;;;;;;;13.48;2.35;;;22.80;99.90;;;;;;5031901;28;20202;-83
2023/01/02 10:03:18;;;;;;;9.15;1.67;;;22.80;99.90;;;;;;5031178;28;20646;-81
2023/01/02 10:06:15;;;;;;;13.90;2.58;;;22.80;99.90;;;;;;5033060;28;20650;-84
2023/01/02 10:08:57;;;;;;;7.65;1.83;;;22.70;99.90;;;;;;5007964;28;20285;-81
2023/01/02 10:11:44;;;;;;;14.25;2.40;;;22.80;99.90;;;;;;5032790;28;20194;-81
2023/01/02 10:14:19;;;;;;;15.07;2.00;;;22.70;99.90;;;;;;5027853;28;20232;-83
2023/01/02 10:16:52;;;;;;;8.55;1.92;;;22.70;99.90;;;;;;5031024;28;20570;-81
2023/01/02 10:19:29;;;;;;;14.13;2.20;;;22.80;99.90;;;;;;5032420;28;20707;-82
2023/01/02 10:22:01;;;;;;;12.38;1.95;;;22.70;99.90;;;;;;5032363;28;20202;-82
2023/01/02 10:24:41;;;;;;;7.68;1.98;;;22.70;99.90;;;;;;5033580;28;20190;-81
2023/01/02 10:27:21;;;;;;;14.82;2.58;;;22.70;99.90;;;;;;5026754;28;20202;-82
2023/01/02 10:30:02;;;;;;;8.98;2.28;;;22.70;99.90;;;;;;5024599;28;20282;-80
2023/01/02 10:32:34;;;;;;;10.43;2.10;;;22.70;99.90;;;;;;5020872;28;20670;-79
2023/01/02 10:35:16;;;;;;;11.55;1.90;;;22.70;99.90;;;;;;5032106;28;20285;-79
2023/01/02 10:37:47;;;;;;;11.57;2.38;;;22.60;99.90;;;;;;5031464;28;20210;-87
2023/01/02 10:40:18;;;;;;;8.45;2.28;;;22.60;99.90;;;;;;5029809;28;20190;-84
2023/01/02 10:42:56;;;;;;;10.27;2.03;;;22.60;99.90;;;;;;5032580;28;20202;-82
2023/01/02 10:45:27;;;;;;;11.85;2.20;;;22.60;99.90;;;;;;5030550;28;20222;-79
2023/01/02 10:48:01;;;;;;;9.25;2.15;;;22.60;99.90;;;;;;5031766;28;20325;-80
2023/01/02 10:50:37;;;;;;;10.05;2.00;;;22.60;99.90;;;;;;5030319;28;20634;-80
2023/01/02 10:53:10;;;;;;;17.88;2.33;;;22.60;99.90;;;;;;5031592;28;20566;-83
2023/01/02 10:55:44;;;;;;;13.23;2.08;;;22.60;99.90;;;;;;5026940;28;20671;-80
2023/01/02 10:58:22;;;;;;;9.63;1.80;;;22.60;99.90;;;;;;5031708;28;20247;-82
2023/01/02 11:00:54;;;;;;;13.10;2.35;;;22.60;99.90;;;;;;5031937;28;20312;-79
2023/01/02 11:03:26;;;;;;;12.98;2.13;;;22.60;99.90;;;;;;5019836;28;20190;-81
2023/01/02 11:05:58;;;;;;;13.77;2.25;;;22.60;99.90;;;;;;5029573;28;20205;-81
2023/01/02 11:08:38;;;;;;;9.23;1.90;;;22.60;99.90;;;;;;5032270;28;20281;-82
2023/01/02 11:11:16;;;;;;;9.57;1.98;;;22.60;99.90;;;;;;5029787;28;20216;-82
2023/01/02 11:13:53;;;;;;;9.90;1.80;;;22.60;99.90;;;;;;5032803;28;20208;-81
2023/01/02 11:16:31;;;;;;;12.60;2.35;;;22.60;99.90;;;;;;5030948;28;20194;-79
2023/01/02 11:19:06;;;;;;;13.55;2.28;;;22.60;99.90;;;;;;5027079;28;20242;-81
2023/01/02 11:24:27;;;;;;;8.85;1.92;;;22.60;99.90;;;;;;5025806;28;20198;-80
2023/01/02 11:27:02;;;;;;;12.27;1.90;;;22.60;99.90;;;;;;5021180;28;20195;-80
2023/01/02 11:29:37;;;;;;;9.55;1.70;;;22.60;99.90;;;;;;5019715;28;20249;-80
2023/01/02 11:32:08;;;;;;;9.93;2.05;;;22.60;99.90;;;;;;5022445;28;20213;-80
2023/01/02 11:34:41;;;;;;;8.32;1.98;;;22.60;99.90;;;;;;5031906;28;20289;-79
2023/01/02 11:37:18;;;;;;;11.20;1.88;;;22.60;99.90;;;;;;5030515;28;20198;-78
2023/01/02 11:40:01;;;;;;;8.60;1.70;;;22.60;99.90;;;;;;5032969;28;20257;-81
2023/01/02 11:45:42;;;;;;;10.15;1.83;;;22.60;99.90;;;;;;4987818;28;20223;-79
2023/01/02 11:48:17;;;;;;;12.65;2.20;;;22.50;99.90;;;;;;4988987;28;20648;-79
2023/01/02 11:50:48;;;;;;;15.50;2.28;;;22.60;99.90;;;;;;5006653;28;20288;-80
2023/01/02 11:53:23;;;;;;;13.13;2.92;;;22.50;99.90;;;;;;5032726;28;20191;-79
2023/01/02 11:55:58;;;;;;;14.70;2.10;;;22.50;99.90;;;;;;5036193;28;20561;-80
2023/01/02 11:58:37;;;;;;;10.93;2.00;;;22.50;99.90;;;;;;5034730;28;20319;-79
2023/01/02 12:01:19;;;;;;;9.40;2.13;;;22.50;99.90;;;;;;5035211;28;20244;-81
2023/01/02 12:03:50;;;;;;;11.02;2.03;;;22.50;99.90;;;;;;5029987;28;20213;-80
2023/01/02 12:06:23;;;;;;;11.15;2.20;;;22.50;99.90;;;;;;5025598;28;20291;-80
2023/01/02 12:09:10;;;;;;;9.98;1.83;;;22.60;99.90;;;;;;5024192;28;20611;-81
2023/01/02 12:12:01;;;;;;;14.18;2.10;;;22.50;99.90;;;;;;5022625;28;20290;-84
2023/01/02 12:14:48;;;;;;;9.40;1.83;;;22.60;99.90;;;;;;5007989;28;20239;-81
2023/01/02 12:17:26;;;;;;;12.93;2.10;;;22.50;99.90;;;;;;5021590;28;20198;-80
2023/01/02 12:20:19;;;;;;;14.23;2.53;;;22.50;99.90;;;;;;5016230;28;20214;-81
2023/01/02 12:23:18;;;;;;;10.75;1.92;;;22.50;99.90;;;;;;5016261;28;20191;-80
2023/01/02 12:25:56;;;;;;;10.32;2.00;;;22.50;99.90;;;;;;5030992;28;20381;-80
2023/01/02 12:29:17;;;;;;;8.15;1.90;;;22.50;99.90;;;;;;5026673;28;20208;-80
2023/01/02 12:32:10;;;;;;;10.57;2.17;;;22.50;99.90;;;;;;4954849;29;20279;-79
2023/01/02 12:35:04;;;;;;;12.15;2.08;;;22.50;99.90;;;;;;4954256;29;20243;-79
2023/01/02 12:37:47;;;;;;;12.63;2.28;;;22.50;99.90;;;;;;5004340;28;20242;-79
2023/01/02 12:40:45;;;;;;;10.63;2.28;;;22.50;99.90;;;;;;5019542;28;20281;-80
2023/01/02 12:43:41;;;;;;;12.38;2.33;;;22.50;99.90;;;;;;5032522;28;20202;-80
2023/01/02 12:46:26;;;;;;;13.50;2.15;;;22.50;99.90;;;;;;5035198;28;20234;-79
2023/01/02 12:49:10;;;;;;;9.63;1.80;;;22.40;99.90;;;;;;5034148;28;20198;-80
2023/01/02 12:51:50;;;;;;;11.80;2.05;;;22.50;99.90;;;;;;5035479;28;20626;-80
2023/01/02 12:54:33;;;;;;;9.18;1.80;;;22.40;99.90;;;;;;5033818;28;20240;-79
2023/01/02 12:57:13;;;;;;;8.75;1.80;;;22.40;99.90;;;;;;5034789;28;20286;-79
2023/01/02 13:00:16;;;;;;;12.38;1.95;;;22.40;99.90;;;;;;5027517;28;20727;-79
2023/01/02 13:03:07;;;;;;;11.07;2.15;;;22.40;99.90;;;;;;5023520;28;20203;-79
2023/01/02 13:05:43;;;;;;;8.98;1.90;;;22.40;99.90;;;;;;5035235;28;20193;-80
2023/01/02 13:08:22;;;;;;;9.13;2.10;;;22.40;99.90;;;;;;5026065;28;20198;-80
2023/01/02 13:10:54;;;;;;;7.85;1.85;;;22.40;99.90;;;;;;5015344;28;20281;-80
2023/01/02 13:13:31;;;;;;;11.20;1.98;;;22.40;99.90;;;;;;5021469;28;20206;-79
2023/01/02 13:16:07;;;;;;;11.15;2.00;;;22.40;99.90;;;;;;5035071;28;20217;-81
2023/01/02 13:18:44;;;;;;;8.68;1.70;;;22.40;99.90;;;;;;5031477;28;20703;-80
2023/01/02 13:21:22;;;;;;;10.85;2.20;;;22.30;99.90;;;;;;5034634;28;20190;-80
2023/01/02 13:23:56;;;;;;;9.23;2.05;;;22.30;99.90;;;;;;5032222;28;20224;-79
2023/01/02 13:26:28;;;;;;;14.60;2.50;;;22.30;99.90;;;;;;5033163;28;20277;-80
2023/01/02 13:29:05;;;;;;;10.55;1.92;;;22.30;99.90;;;;;;5032831;28;20728;-80
2023/01/02 13:31:39;;;;;;;10.52;2.20;;;22.30;99.90;;;;;;5020550;28;20198;-80